Time;durP1;ratioP1;P1;durP2;ratioP2;P2;SDS_P1;SDS_P2;PMS_P1;PMS_P2;Temp;Humidity;BMP_temperature;BMP_pressure;BME280_temperature;BME280_humidity;BME280_pressure;Samples;Min_cycle;Max_cycle;Signal;HPM_P1;HPM_P2
2021/05/18 00:00:31;;;;;;;;;;;20.50;42.30;;;;;;473706;248;1178;-75
2021/05/18 00:02:33;;;;;;;;;;;20.50;42.40;;;;;;473685;251;1237;-75
2021/05/18 00:04:34;;;;;;;;;;;20.50;42.50;;;;;;473699;251;970;-75
2021/05/18 00:06:35;;;;;;;;;;;20.40;42.50;;;;;;473646;249;1268;-75
2021/05/18 00:11:42;;;;;;;;;;;20.40;42.50;;;;;;473849;251;1025;-75
2021/05/18 00:12:57;;;;;;;;;;;20.40;42.50;;;;;;473743;251;1248;-75
2021/05/18 00:14:58;;;;;;;;;;;20.40;42.60;;;;;;473759;251;1057;-75
2021/05/18 00:17:00;;;;;;;;;;;20.40;42.60;;;;;;473590;251;2145;-75
2021/05/18 00:19:01;;;;;;;;;;;20.40;42.60;;;;;;473649;251;1172;-75
2021/05/18 00:21:02;;;;;;;;;;;20.40;42.60;;;;;;473580;251;1215;-75
2021/05/18 00:23:04;;;;;;;;;;;20.40;42.50;;;;;;473717;251;1100;-75
2021/05/18 00:25:05;;;;;;;;;;;20.40;42.50;;;;;;473744;251;1092;-75
2021/05/18 00:27:06;;;;;;;;;;;20.50;42.50;;;;;;473559;248;1202;-75
2021/05/18 00:29:07;;;;;;;;;;;20.50;42.50;;;;;;473801;251;973;-75
2021/05/18 00:31:09;;;;;;;;;;;20.50;42.50;;;;;;473734;251;1168;-75
2021/05/18 00:33:10;;;;;;;;;;;20.50;42.50;;;;;;473670;251;1121;-75
2021/05/18 00:35:11;;;;;;;;;;;20.50;42.50;;;;;;473702;251;961;-75
2021/05/18 00:37:13;;;;;;;;;;;20.50;42.40;;;;;;473577;251;2146;-75
2021/05/18 00:39:15;;;;;;;;;;;20.50;42.40;;;;;;473721;251;1233;-75
2021/05/18 00:41:15;;;;;;;;;;;20.50;42.50;;;;;;473581;251;1379;-74
2021/05/18 00:43:16;;;;;;;;;;;20.50;42.40;;;;;;473653;248;1063;-75
2021/05/18 00:45:18;;;;;;;;;;;20.40;42.60;;;;;;473635;251;1061;-75
2021/05/18 00:47:19;;;;;;;;;;;20.40;42.50;;;;;;473564;251;1331;-75
2021/05/18 00:49:20;;;;;;;;;;;20.50;42.40;;;;;;473695;251;1076;-75
2021/05/18 00:51:22;;;;;;;;;;;20.50;42.40;;;;;;473581;248;1229;-74
2021/05/18 00:53:23;;;;;;;;;;;20.40;42.40;;;;;;473668;251;1129;-74
2021/05/18 00:55:32;;;;;;;;;;;20.40;42.50;;;;;;473739;251;1069;-75
2021/05/18 00:59:58;;;;;;;;;;;20.30;42.60;;;;;;468642;251;1195;-74
2021/05/18 01:01:59;;;;;;;;;;;20.30;42.50;;;;;;473651;251;1167;-74
2021/05/18 01:04:01;;;;;;;;;;;20.30;42.60;;;;;;473790;251;1048;-74
2021/05/18 01:06:25;;;;;;;;;;;20.30;42.60;;;;;;473706;251;1182;-75
2021/05/18 01:08:22;;;;;;;;;;;20.30;42.60;;;;;;473419;251;1512;-74
2021/05/18 01:10:24;;;;;;;;;;;20.40;42.40;;;;;;473634;251;1024;-74
2021/05/18 01:12:25;;;;;;;;;;;20.50;42.30;;;;;;473634;251;1178;-75
2021/05/18 01:14:26;;;;;;;;;;;20.40;42.30;;;;;;473724;251;1047;-75
2021/05/18 01:16:28;;;;;;;;;;;20.40;42.30;;;;;;473597;251;2185;-75
2021/05/18 01:18:29;;;;;;;;;;;20.40;42.30;;;;;;473649;251;1144;-75
2021/05/18 01:20:31;;;;;;;;;;;20.40;42.20;;;;;;473613;251;1026;-74
2021/05/18 01:22:32;;;;;;;;;;;20.40;42.20;;;;;;473728;251;1109;-75
2021/05/18 01:24:34;;;;;;;;;;;20.40;42.30;;;;;;473685;251;1091;-75
2021/05/18 01:26:35;;;;;;;;;;;20.30;42.30;;;;;;473697;251;1350;-74
2021/05/18 01:28:37;;;;;;;;;;;20.30;42.40;;;;;;473940;251;1066;-74
2021/05/18 01:30:38;;;;;;;;;;;20.40;42.30;;;;;;473754;251;1264;-74
2021/05/18 01:32:40;;;;;;;;;;;20.40;42.20;;;;;;473754;251;1057;-75
2021/05/18 01:34:41;;;;;;;;;;;20.40;42.30;;;;;;473730;251;1419;-75
2021/05/18 01:36:42;;;;;;;;;;;20.40;42.20;;;;;;473651;251;2205;-75
2021/05/18 01:38:47;;;;;;;;;;;20.40;42.10;;;;;;473614;251;1075;-75
2021/05/18 01:43:04;;;;;;;;;;;20.50;42.00;;;;;;473686;250;1080;-74
2021/05/18 01:45:05;;;;;;;;;;;20.50;42.00;;;;;;473676;251;1459;-74
2021/05/18 01:47:09;;;;;;;;;;;20.40;42.00;;;;;;473620;251;1033;-74
2021/05/18 01:49:08;;;;;;;;;;;20.50;42.00;;;;;;473674;251;1452;-74
2021/05/18 01:51:09;;;;;;;;;;;20.40;41.90;;;;;;473650;251;1168;-75
2021/05/18 01:53:10;;;;;;;;;;;20.40;42.00;;;;;;473755;251;1060;-75
2021/05/18 01:55:13;;;;;;;;;;;20.40;42.00;;;;;;473763;251;1010;-75
2021/05/18 01:57:18;;;;;;;;;;;20.40;42.00;;;;;;473660;251;2212;-75
2021/05/18 01:59:19;;;;;;;;;;;20.40;41.90;;;;;;473714;248;1469;-75
2021/05/18 02:01:19;;;;;;;;;;;20.50;41.90;;;;;;473743;251;1079;-75
2021/05/18 02:03:21;;;;;;;;;;;20.50;41.90;;;;;;473633;251;1038;-75
2021/05/18 02:05:22;;;;;;;;;;;20.50;41.80;;;;;;473664;251;1001;-74
2021/05/18 02:07:23;;;;;;;;;;;20.50;41.90;;;;;;473659;251;1139;-74
2021/05/18 02:09:24;;;;;;;;;;;20.40;41.80;;;;;;473626;251;1055;-74
2021/05/18 02:11:26;;;;;;;;;;;20.50;41.70;;;;;;473631;251;1131;-74
2021/05/18 02:13:27;;;;;;;;;;;20.50;41.60;;;;;;473706;251;1056;-74
2021/05/18 02:15:38;;;;;;;;;;;20.50;41.70;;;;;;473758;251;1174;-74
2021/05/18 02:17:37;;;;;;;;;;;20.50;41.70;;;;;;473501;251;2134;-74
2021/05/18 02:19:41;;;;;;;;;;;20.50;41.70;;;;;;473579;251;1430;-74
2021/05/18 02:21:49;;;;;;;;;;;20.50;41.80;;;;;;473276;251;1633;-75
2021/05/18 02:26:03;;;;;;;;;;;20.50;41.80;;;;;;473672;249;1753;-74
2021/05/18 02:28:04;;;;;;;;;;;20.50;41.80;;;;;;473735;251;1188;-74
2021/05/18 02:30:06;;;;;;;;;;;20.50;41.70;;;;;;473647;251;1010;-75
2021/05/18 02:32:07;;;;;;;;;;;20.40;41.70;;;;;;473563;251;1376;-74
2021/05/18 02:34:08;;;;;;;;;;;20.50;41.80;;;;;;473618;251;1132;-74
2021/05/18 02:36:09;;;;;;;;;;;20.40;41.80;;;;;;473619;251;1152;-74
2021/05/18 02:38:11;;;;;;;;;;;20.40;41.80;;;;;;473620;251;2189;-74
2021/05/18 02:40:15;;;;;;;;;;;20.40;41.70;;;;;;473671;251;1123;-74
2021/05/18 02:42:14;;;;;;;;;;;20.40;41.80;;;;;;473593;251;1486;-74
2021/05/18 02:44:21;;;;;;;;;;;20.50;41.80;;;;;;473737;251;1110;-74
2021/05/18 02:49:06;;;;;;;;;;;20.50;41.70;;;;;;473380;251;1456;-74
2021/05/18 02:50:42;;;;;;;;;;;20.50;41.70;;;;;;469010;251;1197;-74
2021/05/18 02:52:43;;;;;;;;;;;20.50;41.80;;;;;;473669;251;1197;-75
2021/05/18 02:54:48;;;;;;;;;;;20.50;41.60;;;;;;473705;251;979;-75
2021/05/18 02:56:49;;;;;;;;;;;20.40;41.60;;;;;;473346;251;1414;-75
2021/05/18 02:58:56;;;;;;;;;;;20.40;41.70;;;;;;473670;251;2212;-75
2021/05/18 03:00:49;;;;;;;;;;;20.40;41.70;;;;;;473222;251;1444;-75
2021/05/18 03:02:51;;;;;;;;;;;20.50;41.70;;;;;;473596;251;1024;-75
2021/05/18 03:04:52;;;;;;;;;;;20.50;41.60;;;;;;473704;251;1266;-74
2021/05/18 03:06:53;;;;;;;;;;;20.50;41.60;;;;;;473679;251;1045;-74
2021/05/18 03:08:54;;;;;;;;;;;20.60;41.60;;;;;;473615;251;1137;-74
2021/05/18 03:10:56;;;;;;;;;;;20.60;41.50;;;;;;473688;251;1137;-75
2021/05/18 03:12:57;;;;;;;;;;;20.60;41.40;;;;;;473649;251;1196;-74
2021/05/18 03:14:58;;;;;;;;;;;20.60;41.50;;;;;;473699;251;987;-74
2021/05/18 03:17:01;;;;;;;;;;;20.50;41.50;;;;;;473704;251;2208;-75
2021/05/18 03:19:01;;;;;;;;;;;20.50;41.60;;;;;;473728;251;1466;-75
2021/05/18 03:21:02;;;;;;;;;;;20.50;41.60;;;;;;473629;251;1008;-74
2021/05/18 03:23:04;;;;;;;;;;;20.50;41.70;;;;;;473638;251;1048;-74
2021/05/18 03:25:05;;;;;;;;;;;20.50;41.70;;;;;;473641;251;1094;-74
2021/05/18 03:27:07;;;;;;;;;;;20.50;41.80;;;;;;473573;251;1164;-74
2021/05/18 03:29:13;;;;;;;;;;;20.50;41.70;;;;;;473645;251;1533;-75
2021/05/18 03:35:52;;;;;;;;;;;20.50;41.80;;;;;;473613;248;1164;-75
2021/05/18 03:37:55;;;;;;;;;;;20.50;41.70;;;;;;473647;251;2186;-75
2021/05/18 03:39:56;;;;;;;;;;;20.50;41.80;;;;;;473557;251;1424;-74
2021/05/18 03:42:01;;;;;;;;;;;20.50;41.80;;;;;;473617;251;1501;-75
2021/05/18 03:44:05;;;;;;;;;;;20.50;41.80;;;;;;473636;251;1590;-75
2021/05/18 03:48:42;;;;;;;;;;;20.50;41.90;;;;;;473684;251;1136;-75
2021/05/18 04:02:47;;;;;;;;;;;20.40;42.10;;;;;;473724;250;1146;-74
2021/05/18 04:04:51;;;;;;;;;;;20.30;42.10;;;;;;473517;251;1334;-74
2021/05/18 04:18:21;;;;;;;;;;;20.20;42.40;;;;;;473569;250;2153;-74
2021/05/18 04:20:33;;;;;;;;;;;20.30;42.30;;;;;;473586;251;1100;-74
2021/05/18 04:22:38;;;;;;;;;;;20.30;42.30;;;;;;473106;251;1423;-75
2021/05/18 04:24:52;;;;;;;;;;;20.20;42.40;;;;;;473307;251;1409;-75
2021/05/18 04:27:00;;;;;;;;;;;20.30;42.20;;;;;;472892;251;1423;-75
2021/05/18 04:40:54;;;;;;;;;;;20.40;42.30;;;;;;473382;251;1058;-74
2021/05/18 04:43:17;;;;;;;;;;;20.40;42.30;;;;;;472306;251;1446;-74
2021/05/18 04:52:06;;;;;;;;;;;20.30;42.60;;;;;;473452;251;1098;-75
2021/05/18 04:54:25;;;;;;;;;;;20.30;42.60;;;;;;473489;251;1406;-75
2021/05/18 05:00:52;;;;;;;;;;;20.30;42.40;;;;;;473447;251;1052;-74
2021/05/18 05:07:40;;;;;;;;;;;20.20;42.60;;;;;;473527;251;1119;-75
2021/05/18 05:09:34;;;;;;;;;;;20.20;42.60;;;;;;472834;251;1418;-75
2021/05/18 05:16:12;;;;;;;;;;;20.30;42.50;;;;;;473342;251;1185;-74
2021/05/18 05:18:13;;;;;;;;;;;20.20;42.40;;;;;;473315;251;2146;-75
2021/05/18 05:20:15;;;;;;;;;;;20.30;42.50;;;;;;473302;251;1031;-75
2021/05/18 05:22:16;;;;;;;;;;;20.30;42.50;;;;;;473307;251;1060;-75
2021/05/18 05:24:17;;;;;;;;;;;20.30;42.40;;;;;;473363;251;1124;-74
2021/05/18 05:26:18;;;;;;;;;;;20.20;42.30;;;;;;473324;251;1175;-75
2021/05/18 05:28:20;;;;;;;;;;;20.20;42.30;;;;;;473336;251;1162;-75
2021/05/18 05:30:21;;;;;;;;;;;20.30;42.30;;;;;;473294;251;1120;-75
2021/05/18 05:32:22;;;;;;;;;;;20.30;42.40;;;;;;473375;251;1043;-75
2021/05/18 05:34:24;;;;;;;;;;;20.30;42.40;;;;;;473384;251;1046;-75
2021/05/18 05:36:25;;;;;;;;;;;20.30;42.40;;;;;;473275;251;1247;-75
2021/05/18 05:38:29;;;;;;;;;;;20.30;42.40;;;;;;473273;251;2181;-75
2021/05/18 05:40:27;;;;;;;;;;;20.30;42.30;;;;;;473090;251;1296;-75
2021/05/18 05:42:29;;;;;;;;;;;20.20;42.30;;;;;;473173;251;1061;-75
2021/05/18 05:44:30;;;;;;;;;;;20.30;42.30;;;;;;473095;251;1567;-74
2021/05/18 05:46:31;;;;;;;;;;;20.30;42.20;;;;;;473157;251;1185;-75
2021/05/18 05:48:32;;;;;;;;;;;20.40;42.10;;;;;;473250;251;1073;-75
2021/05/18 05:50:34;;;;;;;;;;;20.40;42.00;;;;;;473249;251;1387;-75
2021/05/18 05:52:35;;;;;;;;;;;20.40;42.00;;;;;;473139;251;1103;-75
2021/05/18 05:54:36;;;;;;;;;;;20.40;41.90;;;;;;473162;251;1110;-75
2021/05/18 05:56:38;;;;;;;;;;;20.40;42.00;;;;;;473094;251;1226;-75
2021/05/18 05:58:39;;;;;;;;;;;20.40;42.00;;;;;;473005;251;2197;-75
2021/05/18 06:00:40;;;;;;;;;;;20.40;42.00;;;;;;473142;251;1479;-75
2021/05/18 06:02:41;;;;;;;;;;;20.40;42.00;;;;;;473000;251;1146;-75
2021/05/18 06:04:43;;;;;;;;;;;20.40;42.10;;;;;;473132;251;988;-75
2021/05/18 06:06:44;;;;;;;;;;;20.40;42.10;;;;;;473083;251;1187;-75
2021/05/18 06:08:46;;;;;;;;;;;20.30;42.30;;;;;;472834;251;1111;-75
2021/05/18 06:10:50;;;;;;;;;;;20.30;42.20;;;;;;472814;251;1860;-74
2021/05/18 06:13:01;;;;;;;;;;;20.40;42.30;;;;;;472765;251;1348;-75
2021/05/18 06:15:15;;;;;;;;;;;20.30;42.30;;;;;;472623;252;1321;-75
2021/05/18 06:17:41;;;;;;;;;;;20.30;42.40;;;;;;472199;251;1610;-75
2021/05/18 06:37:01;;;;;;;;;;;20.50;42.30;;;;;;473054;251;1338;-75
2021/05/18 06:42:42;;;;;;;;;;;20.40;42.50;;;;;;473044;251;1106;-74
2021/05/18 06:47:05;;;;;;;;;;;20.30;42.70;;;;;;472936;251;1109;-75
2021/05/18 06:49:04;;;;;;;;;;;20.20;42.80;;;;;;472937;251;1504;-75
2021/05/18 06:51:05;;;;;;;;;;;20.30;42.90;;;;;;472873;251;1301;-74
2021/05/18 06:53:07;;;;;;;;;;;20.20;43.10;;;;;;472950;251;1080;-75
2021/05/18 06:55:09;;;;;;;;;;;20.30;43.00;;;;;;473034;251;992;-75
2021/05/18 06:57:09;;;;;;;;;;;20.30;42.90;;;;;;472790;251;1245;-74
2021/05/18 07:01:30;;;;;;;;;;;20.30;43.00;;;;;;472821;251;1115;-75
2021/05/18 07:03:36;;;;;;;;;;;20.30;43.00;;;;;;472839;251;1070;-76
2021/05/18 07:05:37;;;;;;;;;;;20.30;43.00;;;;;;472560;251;1291;-76
2021/05/18 07:07:36;;;;;;;;;;;20.30;43.00;;;;;;472620;251;1345;-75
2021/05/18 07:09:37;;;;;;;;;;;20.30;43.20;;;;;;472900;251;1512;-75
2021/05/18 07:11:38;;;;;;;;;;;20.30;43.10;;;;;;472783;251;1182;-75
2021/05/18 07:13:40;;;;;;;;;;;20.40;43.00;;;;;;472811;251;1157;-76
2021/05/18 07:15:42;;;;;;;;;;;20.40;43.00;;;;;;472880;251;1204;-75
2021/05/18 07:17:42;;;;;;;;;;;20.40;43.00;;;;;;472780;251;1324;-74
2021/05/18 07:19:45;;;;;;;;;;;20.40;43.00;;;;;;472740;251;2189;-74
2021/05/18 07:21:45;;;;;;;;;;;20.40;43.10;;;;;;472634;248;1604;-75
2021/05/18 07:23:47;;;;;;;;;;;20.40;42.90;;;;;;472770;251;1139;-74
2021/05/18 07:25:48;;;;;;;;;;;20.40;42.90;;;;;;472744;251;1212;-74
2021/05/18 07:27:49;;;;;;;;;;;20.50;43.00;;;;;;473139;251;1104;-73
2021/05/18 07:29:50;;;;;;;;;;;20.40;43.10;;;;;;472531;251;1181;-74
2021/05/18 07:31:52;;;;;;;;;;;20.40;43.10;;;;;;472578;251;1186;-74
2021/05/18 07:33:53;;;;;;;;;;;20.40;43.00;;;;;;472664;251;1126;-74
2021/05/18 07:35:57;;;;;;;;;;;20.40;43.20;;;;;;472712;251;1250;-74
2021/05/18 07:37:56;;;;;;;;;;;20.40;43.40;;;;;;472667;251;1416;-74
2021/05/18 07:39:57;;;;;;;;;;;20.40;43.40;;;;;;472825;251;2150;-74
2021/05/18 07:41:58;;;;;;;;;;;20.40;43.10;;;;;;472830;251;1351;-74
2021/05/18 07:44:00;;;;;;;;;;;20.50;43.20;;;;;;472673;251;1085;-74
2021/05/18 07:46:03;;;;;;;;;;;20.50;43.20;;;;;;472711;251;1121;-74
2021/05/18 07:48:11;;;;;;;;;;;20.50;43.20;;;;;;472612;251;1418;-74
2021/05/18 07:50:06;;;;;;;;;;;20.50;43.20;;;;;;472200;251;1402;-74
2021/05/18 07:59:24;;;;;;;;;;;20.40;43.40;;;;;;465137;255;2208;-74
2021/05/18 08:06:12;;;;;;;;;;;20.40;43.30;;;;;;456402;260;1106;-74
2021/05/18 08:08:13;;;;;;;;;;;20.40;43.50;;;;;;456407;260;1169;-74
2021/05/18 08:10:17;;;;;;;;;;;20.40;43.60;;;;;;456298;260;1137;-74
2021/05/18 08:12:16;;;;;;;;;;;20.40;43.60;;;;;;456387;260;1339;-74
2021/05/18 08:14:21;;;;;;;;;;;20.30;43.80;;;;;;456435;260;851;-74
2021/05/18 08:16:49;;;;;;;;;;;20.30;44.00;;;;;;456097;260;1387;-74
2021/05/18 08:18:45;;;;;;;;;;;20.40;44.00;;;;;;454868;260;2214;-74
2021/05/18 08:20:54;;;;;;;;;;;20.40;43.80;;;;;;456318;260;1423;-74
2021/05/18 08:46:29;;;;;;;;;;;20.30;43.80;;;;;;456089;260;1277;-76
2021/05/18 09:50:07;;;;;;;;;;;20.20;46.20;;;;;;456837;257;1110;-75
2021/05/18 10:24:09;;;;;;;;;;;20.30;46.70;;;;;;470640;252;1004;-75
2021/05/18 10:36:11;;;;;;;;;;;20.30;46.70;;;;;;453351;261;1234;-75
2021/05/18 10:38:12;;;;;;;;;;;20.30;46.70;;;;;;453481;257;1332;-75
2021/05/18 10:40:12;;;;;;;;;;;20.30;46.80;;;;;;457670;258;2213;-75
2021/05/18 10:42:13;;;;;;;;;;;20.30;46.90;;;;;;453452;261;1258;-75
2021/05/18 10:44:15;;;;;;;;;;;20.30;47.00;;;;;;454001;255;1506;-75
2021/05/18 10:46:24;;;;;;;;;;;20.30;46.90;;;;;;453549;261;1126;-75
2021/05/18 10:48:24;;;;;;;;;;;20.30;46.70;;;;;;453593;257;1318;-74
2021/05/18 10:50:26;;;;;;;;;;;20.40;46.70;;;;;;453561;261;1132;-75
2021/05/18 10:52:27;;;;;;;;;;;20.40;46.40;;;;;;453574;261;1283;-75
2021/05/18 10:54:28;;;;;;;;;;;20.40;46.20;;;;;;453661;261;1099;-75
2021/05/18 10:56:29;;;;;;;;;;;20.40;46.40;;;;;;453671;261;1447;-75
2021/05/18 10:58:31;;;;;;;;;;;20.40;46.40;;;;;;453629;261;1090;-75
2021/05/18 11:00:33;;;;;;;;;;;20.40;46.50;;;;;;453386;261;2203;-75
2021/05/18 11:02:34;;;;;;;;;;;20.40;46.50;;;;;;457704;258;1179;-75
2021/05/18 11:04:35;;;;;;;;;;;20.40;46.60;;;;;;453496;261;1282;-75
2021/05/18 11:06:36;;;;;;;;;;;20.40;46.50;;;;;;453435;261;1352;-75
2021/05/18 11:08:38;;;;;;;;;;;20.40;46.60;;;;;;453496;261;1132;-75
2021/05/18 11:10:40;;;;;;;;;;;20.30;46.70;;;;;;453492;261;1478;-74
2021/05/18 11:12:40;;;;;;;;;;;20.20;46.70;;;;;;453515;262;1322;-75
2021/05/18 11:14:42;;;;;;;;;;;20.20;46.60;;;;;;453620;261;1254;-75
2021/05/18 11:16:43;;;;;;;;;;;20.20;46.70;;;;;;453565;261;1236;-75
2021/05/18 11:18:44;;;;;;;;;;;20.30;46.80;;;;;;453604;261;1135;-75
2021/05/18 11:20:56;;;;;;;;;;;20.20;46.90;;;;;;453515;261;2218;-75
2021/05/18 11:25:12;;;;;;;;;;;20.10;47.10;;;;;;456453;260;1153;-75
2021/05/18 11:27:13;;;;;;;;;;;20.20;46.90;;;;;;456448;260;1252;-74
2021/05/18 11:29:14;;;;;;;;;;;20.20;46.90;;;;;;456424;260;1096;-75
2021/05/18 11:31:16;;;;;;;;;;;20.20;46.70;;;;;;456269;260;1393;-75
2021/05/18 11:33:17;;;;;;;;;;;20.30;46.60;;;;;;456782;260;1510;-75
2021/05/18 11:35:18;;;;;;;;;;;20.20;46.40;;;;;;456988;260;1094;-74
2021/05/18 11:37:19;;;;;;;;;;;20.30;46.40;;;;;;456499;260;1374;-74
2021/05/18 11:39:21;;;;;;;;;;;20.20;46.40;;;;;;457234;260;2206;-74
2021/05/18 11:41:22;;;;;;;;;;;20.30;46.50;;;;;;456590;260;1164;-74
2021/05/18 11:43:23;;;;;;;;;;;20.30;46.40;;;;;;457245;257;1213;-75
2021/05/18 11:45:25;;;;;;;;;;;20.20;46.60;;;;;;457426;260;1458;-75
2021/05/18 11:47:26;;;;;;;;;;;20.20;46.70;;;;;;471483;252;1141;-76
2021/05/18 11:49:27;;;;;;;;;;;20.20;46.80;;;;;;471713;251;1162;-75
2021/05/18 11:51:29;;;;;;;;;;;20.20;46.80;;;;;;470933;251;1299;-75
2021/05/18 11:53:31;;;;;;;;;;;20.20;46.90;;;;;;454411;262;891;-74
2021/05/18 11:55:32;;;;;;;;;;;20.20;46.90;;;;;;453729;261;1129;-74
2021/05/18 11:57:33;;;;;;;;;;;20.30;46.90;;;;;;453382;261;1072;-74
2021/05/18 11:59:34;;;;;;;;;;;20.30;46.70;;;;;;453485;261;2196;-75
2021/05/18 12:01:36;;;;;;;;;;;20.30;46.80;;;;;;457537;258;1210;-74
2021/05/18 12:03:37;;;;;;;;;;;20.20;46.80;;;;;;453435;261;1207;-74
2021/05/18 12:05:38;;;;;;;;;;;20.20;46.90;;;;;;453378;261;1171;-75
2021/05/18 12:07:40;;;;;;;;;;;20.10;47.00;;;;;;453850;261;1171;-75
2021/05/18 12:09:41;;;;;;;;;;;20.20;46.90;;;;;;454020;261;1253;-75
2021/05/18 12:11:42;;;;;;;;;;;20.20;46.80;;;;;;453375;261;1221;-75
2021/05/18 12:13:43;;;;;;;;;;;20.30;46.80;;;;;;453463;261;1113;-74
2021/05/18 12:15:45;;;;;;;;;;;20.40;46.60;;;;;;457456;258;1216;-75
2021/05/18 12:17:46;;;;;;;;;;;20.40;46.40;;;;;;453269;261;1199;-75
2021/05/18 12:19:47;;;;;;;;;;;20.40;46.30;;;;;;453314;261;2199;-75
2021/05/18 12:21:49;;;;;;;;;;;20.40;46.50;;;;;;457376;255;1467;-75
2021/05/18 12:23:50;;;;;;;;;;;20.30;46.50;;;;;;453387;261;1350;-74
2021/05/18 12:25:51;;;;;;;;;;;20.30;46.40;;;;;;453406;261;1150;-74
2021/05/18 12:27:52;;;;;;;;;;;20.30;46.60;;;;;;453524;261;1111;-74
2021/05/18 12:29:54;;;;;;;;;;;20.30;46.60;;;;;;453399;261;1117;-74
2021/05/18 12:31:55;;;;;;;;;;;20.40;46.50;;;;;;453212;261;1242;-74
2021/05/18 12:33:56;;;;;;;;;;;20.40;46.40;;;;;;453377;261;1127;-74
2021/05/18 12:35:57;;;;;;;;;;;20.40;46.30;;;;;;453420;261;1502;-75
2021/05/18 12:37:59;;;;;;;;;;;20.40;46.30;;;;;;453537;261;1193;-74
2021/05/18 12:40:01;;;;;;;;;;;20.50;46.30;;;;;;457662;258;2213;-75
2021/05/18 12:42:02;;;;;;;;;;;20.40;46.30;;;;;;453576;261;1529;-75
2021/05/18 12:44:03;;;;;;;;;;;20.50;46.20;;;;;;453754;257;1072;-75
2021/05/18 12:46:04;;;;;;;;;;;20.50;46.00;;;;;;453466;261;1155;-74
2021/05/18 12:48:05;;;;;;;;;;;20.50;46.00;;;;;;453459;261;1132;-75
2021/05/18 12:50:06;;;;;;;;;;;20.50;45.90;;;;;;453384;261;1082;-74
2021/05/18 12:52:08;;;;;;;;;;;20.50;45.90;;;;;;453464;261;1239;-75
2021/05/18 12:54:09;;;;;;;;;;;20.40;46.00;;;;;;453407;261;1180;-75
2021/05/18 12:56:13;;;;;;;;;;;20.40;46.00;;;;;;453452;257;1262;-74
2021/05/18 12:58:11;;;;;;;;;;;20.50;46.00;;;;;;453880;262;1291;-75
2021/05/18 13:00:13;;;;;;;;;;;20.40;46.00;;;;;;453805;261;2207;-74
2021/05/18 13:02:14;;;;;;;;;;;20.50;45.90;;;;;;453936;261;1111;-75
2021/05/18 13:04:16;;;;;;;;;;;20.50;45.80;;;;;;453437;261;1060;-74
2021/05/18 13:06:17;;;;;;;;;;;20.60;45.80;;;;;;453860;261;1316;-75
2021/05/18 13:08:18;;;;;;;;;;;20.50;45.70;;;;;;453662;261;1064;-74
2021/05/18 13:10:20;;;;;;;;;;;20.50;45.90;;;;;;453441;261;1225;-75
2021/05/18 13:12:21;;;;;;;;;;;20.40;45.90;;;;;;453449;257;1365;-75
2021/05/18 13:14:22;;;;;;;;;;;20.40;45.90;;;;;;453543;261;1121;-75
2021/05/18 13:16:24;;;;;;;;;;;20.40;45.90;;;;;;453580;261;1182;-75
2021/05/18 13:18:25;;;;;;;;;;;20.40;45.80;;;;;;453688;261;1250;-75
2021/05/18 13:20:26;;;;;;;;;;;20.50;45.70;;;;;;453638;261;2176;-74
2021/05/18 13:22:29;;;;;;;;;;;20.50;45.50;;;;;;453687;261;1123;-74
2021/05/18 13:26:49;;;;;;;;;;;20.50;45.30;;;;;;457896;260;1082;-74
2021/05/18 13:28:51;;;;;;;;;;;20.50;45.30;;;;;;453764;261;1107;-75
2021/05/18 13:30:52;;;;;;;;;;;20.40;45.30;;;;;;453627;261;1069;-75
2021/05/18 13:32:53;;;;;;;;;;;20.40;45.20;;;;;;453694;261;1137;-75
2021/05/18 13:34:54;;;;;;;;;;;20.40;45.40;;;;;;453638;261;1191;-75
2021/05/18 13:36:56;;;;;;;;;;;20.30;45.50;;;;;;453639;261;1101;-74
2021/05/18 13:38:57;;;;;;;;;;;20.40;45.20;;;;;;453694;260;1234;-74
2021/05/18 13:40:58;;;;;;;;;;;20.40;45.40;;;;;;453466;261;2212;-74
2021/05/18 13:42:59;;;;;;;;;;;20.30;45.50;;;;;;453503;261;1124;-76
2021/05/18 13:45:01;;;;;;;;;;;20.30;45.40;;;;;;458026;258;1102;-73
2021/05/18 13:47:02;;;;;;;;;;;20.40;45.30;;;;;;457973;258;1125;-75
2021/05/18 13:49:03;;;;;;;;;;;20.30;45.10;;;;;;454179;255;1415;-74
2021/05/18 13:51:05;;;;;;;;;;;20.30;45.10;;;;;;453722;261;1162;-75
2021/05/18 13:53:06;;;;;;;;;;;20.30;45.10;;;;;;453714;261;1103;-75
2021/05/18 13:55:07;;;;;;;;;;;20.30;45.10;;;;;;453674;261;1140;-75
2021/05/18 13:57:09;;;;;;;;;;;20.20;45.10;;;;;;453754;261;1205;-76
2021/05/18 13:59:10;;;;;;;;;;;20.20;45.00;;;;;;453644;261;1076;-75
2021/05/18 14:01:13;;;;;;;;;;;20.20;45.10;;;;;;453510;261;2203;-74
2021/05/18 14:03:13;;;;;;;;;;;20.20;45.10;;;;;;453811;257;1280;-74
2021/05/18 14:05:14;;;;;;;;;;;20.20;45.00;;;;;;453677;261;1200;-74
2021/05/18 14:07:39;;;;;;;;;;;20.10;45.00;;;;;;453770;261;1287;-74
2021/05/18 14:09:27;;;;;;;;;;;20.20;44.90;;;;;;453721;261;1439;-74
2021/05/18 14:11:29;;;;;;;;;;;20.10;44.90;;;;;;453702;257;1139;-74
2021/05/18 14:13:32;;;;;;;;;;;20.20;44.80;;;;;;454154;255;1308;-74
2021/05/18 14:15:31;;;;;;;;;;;20.10;44.70;;;;;;453784;257;2144;-74
2021/05/18 14:17:33;;;;;;;;;;;20.10;44.60;;;;;;458030;258;1281;-74
2021/05/18 14:19:34;;;;;;;;;;;20.20;44.60;;;;;;453632;261;1198;-74
2021/05/18 14:21:35;;;;;;;;;;;20.20;44.50;;;;;;453612;261;2233;-74
2021/05/18 14:23:41;;;;;;;;;;;20.30;44.30;;;;;;453659;261;1435;-74
2021/05/18 14:25:39;;;;;;;;;;;20.20;44.00;;;;;;453916;257;1429;-74
2021/05/18 14:27:41;;;;;;;;;;;20.20;44.00;;;;;;458005;258;1133;-74
2021/05/18 14:29:42;;;;;;;;;;;20.30;44.00;;;;;;453735;261;1105;-74
2021/05/18 14:31:43;;;;;;;;;;;20.30;44.00;;;;;;453668;261;1073;-74
2021/05/18 14:33:45;;;;;;;;;;;20.30;43.90;;;;;;453749;261;1246;-74
2021/05/18 14:35:46;;;;;;;;;;;20.30;43.90;;;;;;453642;261;1201;-74
2021/05/18 14:37:51;;;;;;;;;;;20.30;43.90;;;;;;453774;261;1110;-74
2021/05/18 14:39:56;;;;;;;;;;;20.30;43.90;;;;;;453909;257;1456;-74
2021/05/18 14:44:16;;;;;;;;;;;20.20;43.90;;;;;;456600;260;1218;-74
2021/05/18 14:46:19;;;;;;;;;;;20.20;44.00;;;;;;456517;260;1594;-75
2021/05/18 14:53:37;;;;;;;;;;;20.10;44.10;;;;;;456551;260;1415;-74
2021/05/18 14:55:07;;;;;;;;;;;20.10;44.10;;;;;;453845;261;1198;-74
2021/05/18 14:57:06;;;;;;;;;;;20.00;44.10;;;;;;453819;257;1278;-74
2021/05/18 14:59:07;;;;;;;;;;;20.00;44.00;;;;;;458186;258;1050;-74
2021/05/18 15:01:09;;;;;;;;;;;20.00;44.00;;;;;;453744;261;2211;-74
2021/05/18 15:03:10;;;;;;;;;;;20.00;43.90;;;;;;453863;261;1173;-74
2021/05/18 15:05:11;;;;;;;;;;;20.10;43.90;;;;;;453775;261;1208;-74
2021/05/18 15:07:13;;;;;;;;;;;20.00;43.70;;;;;;453742;261;1439;-75
2021/05/18 15:09:14;;;;;;;;;;;20.10;43.60;;;;;;453791;261;1029;-74
2021/05/18 15:11:15;;;;;;;;;;;20.20;43.40;;;;;;453823;261;1476;-74
2021/05/18 15:13:16;;;;;;;;;;;20.20;43.40;;;;;;453834;261;1230;-75
2021/05/18 15:15:18;;;;;;;;;;;20.20;43.20;;;;;;453802;261;1030;-74
2021/05/18 15:17:19;;;;;;;;;;;20.30;43.20;;;;;;453645;261;1238;-74
2021/05/18 15:19:23;;;;;;;;;;;20.30;43.20;;;;;;453803;261;1076;-74
2021/05/18 15:21:22;;;;;;;;;;;20.20;43.10;;;;;;453725;262;2200;-74
2021/05/18 15:23:23;;;;;;;;;;;20.20;43.10;;;;;;453942;261;1176;-74
2021/05/18 15:25:25;;;;;;;;;;;20.20;43.20;;;;;;453779;261;1104;-74
2021/05/18 15:27:26;;;;;;;;;;;20.20;43.30;;;;;;453883;257;1427;-74
2021/05/18 15:29:27;;;;;;;;;;;20.10;43.40;;;;;;453797;256;1514;-75
2021/05/18 15:31:29;;;;;;;;;;;20.20;43.30;;;;;;453793;261;1298;-74
2021/05/18 15:33:30;;;;;;;;;;;20.20;43.20;;;;;;457985;258;1050;-75
2021/05/18 15:35:31;;;;;;;;;;;20.20;43.10;;;;;;456678;261;1273;-74
2021/05/18 15:37:32;;;;;;;;;;;20.30;43.10;;;;;;456801;260;1149;-74
2021/05/18 15:39:35;;;;;;;;;;;20.20;43.00;;;;;;456848;260;1057;-74
2021/05/18 15:41:35;;;;;;;;;;;20.30;43.10;;;;;;456850;260;2159;-74
2021/05/18 15:43:36;;;;;;;;;;;20.30;42.90;;;;;;456960;260;1244;-74
2021/05/18 15:45:38;;;;;;;;;;;20.30;43.00;;;;;;456942;260;1035;-74
2021/05/18 15:47:41;;;;;;;;;;;20.30;43.10;;;;;;456726;260;1194;-74
2021/05/18 15:49:40;;;;;;;;;;;20.30;43.00;;;;;;456810;260;1491;-74
2021/05/18 15:51:41;;;;;;;;;;;20.30;43.00;;;;;;456900;260;1663;-74
2021/05/18 15:53:43;;;;;;;;;;;20.40;42.80;;;;;;456936;260;1070;-74
2021/05/18 15:55:44;;;;;;;;;;;20.40;42.70;;;;;;456847;256;1137;-74
2021/05/18 15:57:45;;;;;;;;;;;20.30;42.70;;;;;;456794;260;1102;-74
2021/05/18 15:59:49;;;;;;;;;;;20.30;42.70;;;;;;456922;260;1176;-74
2021/05/18 16:01:49;;;;;;;;;;;20.30;42.60;;;;;;456983;256;2209;-75
2021/05/18 16:03:51;;;;;;;;;;;20.30;42.70;;;;;;456981;260;1058;-75
2021/05/18 16:05:52;;;;;;;;;;;20.30;42.70;;;;;;457031;260;1258;-74
2021/05/18 16:08:03;;;;;;;;;;;20.30;42.60;;;;;;457052;260;1790;-74
2021/05/18 16:09:54;;;;;;;;;;;20.30;42.50;;;;;;456473;260;1412;-74
2021/05/18 16:11:56;;;;;;;;;;;20.30;42.60;;;;;;456849;260;1201;-74